sensor_id;sensor_type;location;lat;lon;timestamp;P1;durP1;ratioP1;P2;durP2;ratioP2
2712;SDS011;1366;47.988;7.856;2023-10-31T00:02:24;1.33;;;1.30;;
2712;SDS011;1366;47.988;7.856;2023-10-31T00:04:50;1.33;;;1.00;;
2712;SDS011;1366;47.988;7.856;2023-10-31T00:07:16;1.67;;;1.20;;
2712;SDS011;1366;47.988;7.856;2023-10-31T00:09:42;1.10;;;1.00;;
2712;SDS011;1366;47.988;7.856;2023-10-31T00:12:08;1.83;;;1.10;;
2712;SDS011;1366;47.988;7.856;2023-10-31T00:14:34;0.93;;;0.93;;
2712;SDS011;1366;47.988;7.856;2023-10-31T00:17:00;1.40;;;1.13;;
2712;SDS011;1366;47.988;7.856;2023-10-31T00:19:26;1.53;;;1.27;;
2712;SDS011;1366;47.988;7.856;2023-10-31T00:21:52;1.17;;;1.00;;
2712;SDS011;1366;47.988;7.856;2023-10-31T00:24:18;1.37;;;1.27;;
2712;SDS011;1366;47.988;7.856;2023-10-31T00:26:44;1.43;;;1.30;;
2712;SDS011;1366;47.988;7.856;2023-10-31T00:29:10;4.40;;;1.23;;
2712;SDS011;1366;47.988;7.856;2023-10-31T00:31:36;1.10;;;1.07;;
2712;SDS011;1366;47.988;7.856;2023-10-31T00:34:06;1.30;;;1.20;;
2712;SDS011;1366;47.988;7.856;2023-10-31T00:36:32;0.97;;;0.97;;
2712;SDS011;1366;47.988;7.856;2023-10-31T00:38:58;1.20;;;1.10;;
2712;SDS011;1366;47.988;7.856;2023-10-31T00:41:24;1.23;;;1.13;;
2712;SDS011;1366;47.988;7.856;2023-10-31T00:43:51;1.40;;;0.90;;
2712;SDS011;1366;47.988;7.856;2023-10-31T00:46:17;1.10;;;1.00;;
2712;SDS011;1366;47.988;7.856;2023-10-31T00:48:43;1.03;;;0.90;;
2712;SDS011;1366;47.988;7.856;2023-10-31T00:51:09;0.90;;;0.90;;
2712;SDS011;1366;47.988;7.856;2023-10-31T00:53:34;1.20;;;1.10;;
2712;SDS011;1366;47.988;7.856;2023-10-31T00:56:01;1.63;;;1.17;;
2712;SDS011;1366;47.988;7.856;2023-10-31T00:58:27;4.30;;;1.30;;
2712;SDS011;1366;47.988;7.856;2023-10-31T01:00:53;1.10;;;1.00;;
2712;SDS011;1366;47.988;7.856;2023-10-31T01:03:19;1.00;;;1.00;;
2712;SDS011;1366;47.988;7.856;2023-10-31T01:05:45;1.00;;;1.00;;
2712;SDS011;1366;47.988;7.856;2023-10-31T01:08:11;1.27;;;1.17;;
2712;SDS011;1366;47.988;7.856;2023-10-31T01:10:37;1.07;;;0.97;;
2712;SDS011;1366;47.988;7.856;2023-10-31T01:13:03;1.30;;;1.20;;
2712;SDS011;1366;47.988;7.856;2023-10-31T01:15:29;1.30;;;1.10;;
2712;SDS011;1366;47.988;7.856;2023-10-31T01:17:55;0.90;;;0.90;;
2712;SDS011;1366;47.988;7.856;2023-10-31T01:20:21;1.57;;;1.20;;
2712;SDS011;1366;47.988;7.856;2023-10-31T01:22:47;1.37;;;1.27;;
2712;SDS011;1366;47.988;7.856;2023-10-31T01:25:13;1.00;;;1.00;;
2712;SDS011;1366;47.988;7.856;2023-10-31T01:27:39;1.40;;;1.23;;
2712;SDS011;1366;47.988;7.856;2023-10-31T01:30:07;1.30;;;1.20;;
2712;SDS011;1366;47.988;7.856;2023-10-31T01:32:33;1.20;;;1.10;;
2712;SDS011;1366;47.988;7.856;2023-10-31T01:34:59;1.20;;;1.10;;
2712;SDS011;1366;47.988;7.856;2023-10-31T01:37:25;2.70;;;1.40;;
2712;SDS011;1366;47.988;7.856;2023-10-31T01:39:51;1.53;;;1.27;;
2712;SDS011;1366;47.988;7.856;2023-10-31T01:42:18;1.87;;;1.23;;
2712;SDS011;1366;47.988;7.856;2023-10-31T01:44:44;1.73;;;1.20;;
2712;SDS011;1366;47.988;7.856;2023-10-31T01:47:10;1.20;;;1.10;;
2712;SDS011;1366;47.988;7.856;2023-10-31T01:49:36;1.07;;;0.97;;
2712;SDS011;1366;47.988;7.856;2023-10-31T01:52:05;1.10;;;1.00;;
2712;SDS011;1366;47.988;7.856;2023-10-31T01:54:32;1.10;;;1.00;;
2712;SDS011;1366;47.988;7.856;2023-10-31T01:56:59;1.10;;;1.00;;
2712;SDS011;1366;47.988;7.856;2023-10-31T01:59:26;2.47;;;1.20;;
2712;SDS011;1366;47.988;7.856;2023-10-31T02:01:52;1.40;;;1.10;;
2712;SDS011;1366;47.988;7.856;2023-10-31T02:04:20;1.20;;;1.10;;
2712;SDS011;1366;47.988;7.856;2023-10-31T02:06:46;1.30;;;1.20;;
2712;SDS011;1366;47.988;7.856;2023-10-31T02:09:12;2.80;;;1.20;;
2712;SDS011;1366;47.988;7.856;2023-10-31T02:11:38;2.20;;;1.33;;
2712;SDS011;1366;47.988;7.856;2023-10-31T02:14:04;1.43;;;1.33;;
2712;SDS011;1366;47.988;7.856;2023-10-31T02:16:30;1.20;;;1.10;;
2712;SDS011;1366;47.988;7.856;2023-10-31T02:18:56;1.33;;;1.23;;
2712;SDS011;1366;47.988;7.856;2023-10-31T02:21:22;2.40;;;1.30;;
2712;SDS011;1366;47.988;7.856;2023-10-31T02:23:56;2.30;;;1.43;;
2712;SDS011;1366;47.988;7.856;2023-10-31T02:26:22;1.40;;;1.30;;
2712;SDS011;1366;47.988;7.856;2023-10-31T02:28:48;1.50;;;1.40;;
2712;SDS011;1366;47.988;7.856;2023-10-31T02:31:14;1.90;;;1.50;;
2712;SDS011;1366;47.988;7.856;2023-10-31T02:33:40;1.40;;;1.30;;
2712;SDS011;1366;47.988;7.856;2023-10-31T02:36:06;1.40;;;1.30;;
2712;SDS011;1366;47.988;7.856;2023-10-31T02:38:32;1.40;;;1.30;;
2712;SDS011;1366;47.988;7.856;2023-10-31T02:40:58;1.37;;;1.13;;
2712;SDS011;1366;47.988;7.856;2023-10-31T02:43:24;2.00;;;1.40;;
2712;SDS011;1366;47.988;7.856;2023-10-31T02:45:50;2.10;;;1.40;;
2712;SDS011;1366;47.988;7.856;2023-10-31T02:48:16;1.93;;;1.40;;
2712;SDS011;1366;47.988;7.856;2023-10-31T02:50:42;1.30;;;1.20;;
2712;SDS011;1366;47.988;7.856;2023-10-31T02:53:08;1.90;;;1.40;;
2712;SDS011;1366;47.988;7.856;2023-10-31T02:55:34;2.53;;;1.50;;
2712;SDS011;1366;47.988;7.856;2023-10-31T02:58:00;2.53;;;1.60;;
2712;SDS011;1366;47.988;7.856;2023-10-31T03:00:26;2.63;;;1.40;;
2712;SDS011;1366;47.988;7.856;2023-10-31T03:02:52;8.97;;;1.67;;
2712;SDS011;1366;47.988;7.856;2023-10-31T03:05:18;2.37;;;1.53;;
2712;SDS011;1366;47.988;7.856;2023-10-31T03:07:44;2.23;;;1.50;;
2712;SDS011;1366;47.988;7.856;2023-10-31T03:10:10;1.53;;;1.43;;
2712;SDS011;1366;47.988;7.856;2023-10-31T03:12:36;2.10;;;1.40;;
2712;SDS011;1366;47.988;7.856;2023-10-31T03:15:02;3.40;;;1.50;;
2712;SDS011;1366;47.988;7.856;2023-10-31T03:17:29;1.53;;;1.43;;
2712;SDS011;1366;47.988;7.856;2023-10-31T03:19:55;2.23;;;1.70;;
2712;SDS011;1366;47.988;7.856;2023-10-31T03:22:21;3.70;;;1.40;;
2712;SDS011;1366;47.988;7.856;2023-10-31T03:24:47;2.03;;;1.60;;
2712;SDS011;1366;47.988;7.856;2023-10-31T03:27:13;1.30;;;1.27;;
2712;SDS011;1366;47.988;7.856;2023-10-31T03:29:39;1.53;;;1.43;;
2712;SDS011;1366;47.988;7.856;2023-10-31T03:32:05;2.27;;;1.70;;
2712;SDS011;1366;47.988;7.856;2023-10-31T03:34:31;1.60;;;1.50;;
2712;SDS011;1366;47.988;7.856;2023-10-31T03:36:57;4.00;;;1.73;;
2712;SDS011;1366;47.988;7.856;2023-10-31T03:39:23;1.67;;;1.50;;
2712;SDS011;1366;47.988;7.856;2023-10-31T03:41:50;2.40;;;1.20;;
2712;SDS011;1366;47.988;7.856;2023-10-31T03:44:16;1.50;;;1.40;;
2712;SDS011;1366;47.988;7.856;2023-10-31T03:46:42;2.40;;;1.60;;
2712;SDS011;1366;47.988;7.856;2023-10-31T03:49:08;3.23;;;1.70;;
2712;SDS011;1366;47.988;7.856;2023-10-31T03:51:34;2.83;;;1.40;;
2712;SDS011;1366;47.988;7.856;2023-10-31T03:54:00;1.47;;;1.37;;
2712;SDS011;1366;47.988;7.856;2023-10-31T03:56:26;2.30;;;1.70;;
2712;SDS011;1366;47.988;7.856;2023-10-31T03:58:52;1.50;;;1.40;;
2712;SDS011;1366;47.988;7.856;2023-10-31T04:01:18;2.20;;;1.67;;
2712;SDS011;1366;47.988;7.856;2023-10-31T04:03:44;3.00;;;1.50;;
2712;SDS011;1366;47.988;7.856;2023-10-31T04:06:10;3.97;;;1.57;;
2712;SDS011;1366;47.988;7.856;2023-10-31T04:08:36;2.23;;;1.13;;
2712;SDS011;1366;47.988;7.856;2023-10-31T04:11:02;1.60;;;1.50;;
2712;SDS011;1366;47.988;7.856;2023-10-31T04:13:28;6.23;;;1.83;;
2712;SDS011;1366;47.988;7.856;2023-10-31T04:15:54;2.73;;;1.70;;
2712;SDS011;1366;47.988;7.856;2023-10-31T04:18:20;1.60;;;1.50;;
2712;SDS011;1366;47.988;7.856;2023-10-31T04:20:46;1.70;;;1.47;;
2712;SDS011;1366;47.988;7.856;2023-10-31T04:23:12;3.53;;;1.57;;
2712;SDS011;1366;47.988;7.856;2023-10-31T04:25:38;1.43;;;1.20;;
2712;SDS011;1366;47.988;7.856;2023-10-31T04:28:04;2.20;;;1.53;;
2712;SDS011;1366;47.988;7.856;2023-10-31T04:30:30;3.83;;;1.53;;
2712;SDS011;1366;47.988;7.856;2023-10-31T04:32:56;2.20;;;1.70;;
2712;SDS011;1366;47.988;7.856;2023-10-31T04:35:22;3.40;;;1.60;;
2712;SDS011;1366;47.988;7.856;2023-10-31T04:37:48;2.30;;;1.30;;
2712;SDS011;1366;47.988;7.856;2023-10-31T04:40:15;3.33;;;1.47;;
2712;SDS011;1366;47.988;7.856;2023-10-31T04:42:41;1.77;;;1.67;;
2712;SDS011;1366;47.988;7.856;2023-10-31T04:45:08;3.37;;;1.73;;
2712;SDS011;1366;47.988;7.856;2023-10-31T04:47:34;2.43;;;1.60;;
2712;SDS011;1366;47.988;7.856;2023-10-31T04:50:00;1.30;;;1.20;;
2712;SDS011;1366;47.988;7.856;2023-10-31T04:52:26;3.13;;;1.70;;
2712;SDS011;1366;47.988;7.856;2023-10-31T04:54:52;1.73;;;1.30;;
2712;SDS011;1366;47.988;7.856;2023-10-31T04:57:19;3.23;;;2.00;;
2712;SDS011;1366;47.988;7.856;2023-10-31T04:59:45;2.90;;;1.63;;
2712;SDS011;1366;47.988;7.856;2023-10-31T05:02:11;2.50;;;1.60;;
2712;SDS011;1366;47.988;7.856;2023-10-31T05:04:40;1.73;;;1.30;;
2712;SDS011;1366;47.988;7.856;2023-10-31T05:07:06;2.70;;;1.53;;
2712;SDS011;1366;47.988;7.856;2023-10-31T05:09:33;1.67;;;1.30;;
2712;SDS011;1366;47.988;7.856;2023-10-31T05:11:59;6.53;;;1.70;;
2712;SDS011;1366;47.988;7.856;2023-10-31T05:14:25;2.63;;;2.00;;
2712;SDS011;1366;47.988;7.856;2023-10-31T05:16:51;3.10;;;1.50;;
2712;SDS011;1366;47.988;7.856;2023-10-31T05:19:17;2.50;;;1.90;;
2712;SDS011;1366;47.988;7.856;2023-10-31T05:21:43;1.73;;;1.50;;
2712;SDS011;1366;47.988;7.856;2023-10-31T05:24:09;2.87;;;1.60;;
2712;SDS011;1366;47.988;7.856;2023-10-31T05:26:35;3.20;;;1.80;;
2712;SDS011;1366;47.988;7.856;2023-10-31T05:29:02;7.37;;;1.87;;
2712;SDS011;1366;47.988;7.856;2023-10-31T05:31:28;3.50;;;2.17;;
2712;SDS011;1366;47.988;7.856;2023-10-31T05:33:54;2.03;;;1.40;;
2712;SDS011;1366;47.988;7.856;2023-10-31T05:36:23;2.67;;;2.10;;
2712;SDS011;1366;47.988;7.856;2023-10-31T05:38:49;6.13;;;2.30;;
2712;SDS011;1366;47.988;7.856;2023-10-31T05:41:15;4.70;;;2.07;;
2712;SDS011;1366;47.988;7.856;2023-10-31T05:43:41;3.37;;;1.73;;
2712;SDS011;1366;47.988;7.856;2023-10-31T05:46:07;3.07;;;1.80;;
2712;SDS011;1366;47.988;7.856;2023-10-31T05:48:37;2.40;;;1.77;;
2712;SDS011;1366;47.988;7.856;2023-10-31T05:51:03;3.07;;;1.70;;
2712;SDS011;1366;47.988;7.856;2023-10-31T05:53:30;2.90;;;2.27;;
2712;SDS011;1366;47.988;7.856;2023-10-31T05:55:58;3.13;;;1.50;;
2712;SDS011;1366;47.988;7.856;2023-10-31T05:58:24;3.73;;;1.70;;
2712;SDS011;1366;47.988;7.856;2023-10-31T06:00:50;3.10;;;1.90;;
2712;SDS011;1366;47.988;7.856;2023-10-31T06:03:16;3.10;;;1.80;;
2712;SDS011;1366;47.988;7.856;2023-10-31T06:05:42;5.10;;;1.70;;
2712;SDS011;1366;47.988;7.856;2023-10-31T06:08:10;5.13;;;1.43;;
2712;SDS011;1366;47.988;7.856;2023-10-31T06:10:36;4.67;;;2.63;;
